createdAt,value
2019-02-18T00:07:14.088Z,28.37
2019-02-18T00:12:50.761Z,29.47
2019-02-18T00:23:13.127Z,30.57
2019-02-18T00:34:00.566Z,29.37
2019-02-18T00:49:59.337Z,29.03
2019-02-18T01:06:10.518Z,27.17
2019-02-18T01:11:15.722Z,27.73
2019-02-18T01:16:32.632Z,30.03
2019-02-18T01:21:37.856Z,30.30
2019-02-18T01:26:43.081Z,28.67
2019-02-18T01:37:05.559Z,32.50
2019-02-18T01:42:10.764Z,25.10
2019-02-18T01:47:15.960Z,29.37
2019-02-18T01:58:02.995Z,24.40
2019-02-18T02:03:08.241Z,22.83
2019-02-18T02:19:27.963Z,23.47
2019-02-18T02:24:33.467Z,21.77
2019-02-18T02:29:58.002Z,23.10
2019-02-18T02:35:03.190Z,22.27
2019-02-18T02:40:39.786Z,25.77
2019-02-18T02:46:04.093Z,23.20
2019-02-18T02:56:45.124Z,23.90
2019-02-18T03:01:50.352Z,24.17
2019-02-18T03:06:57.496Z,27.30
2019-02-18T03:12:14.816Z,21.20
2019-02-18T03:22:35.913Z,21.17
2019-02-18T03:27:53.330Z,21.20
2019-02-18T03:32:58.839Z,19.63
2019-02-18T03:38:04.033Z,20.57
2019-02-18T03:48:45.657Z,24.03
2019-02-18T03:53:50.868Z,21.20
2019-02-18T03:58:56.134Z,21.27
2019-02-18T04:04:20.516Z,18.77
2019-02-18T04:14:42.937Z,21.20
2019-02-18T04:19:48.303Z,23.47
2019-02-18T04:24:53.560Z,18.93
2019-02-18T04:29:59.047Z,19.73
2019-02-18T04:35:04.599Z,21.60
2019-02-18T04:40:10.070Z,28.37
2019-02-18T04:45:15.326Z,18.60
2019-02-18T04:50:20.708Z,17.57
2019-02-18T04:55:26.085Z,20.40
2019-02-18T05:00:31.605Z,22.37
2019-02-18T05:05:36.944Z,17.27
2019-02-18T05:10:42.284Z,22.70
2019-02-18T05:15:48.297Z,21.27
2019-02-18T05:20:53.832Z,19.03
2019-02-18T05:25:59.090Z,19.53
2019-02-18T05:31:04.380Z,21.07
2019-02-18T05:36:09.657Z,22.43
2019-02-18T05:41:15.020Z,25.00
2019-02-18T05:46:20.405Z,23.30
2019-02-18T05:51:25.649Z,29.33
2019-02-18T05:56:37.051Z,45.53
2019-02-18T06:01:54.259Z,31.43
2019-02-18T06:06:59.559Z,39.67
2019-02-18T06:12:04.789Z,29.90
2019-02-18T06:17:10.017Z,31.27
2019-02-18T06:22:15.206Z,35.50
2019-02-18T06:27:20.438Z,44.63
2019-02-18T06:32:36.995Z,41.40
2019-02-18T06:42:59.134Z,35.37
2019-02-18T06:48:15.098Z,31.37
2019-02-18T06:53:20.565Z,30.80
2019-02-18T06:59:03.996Z,32.83
2019-02-18T07:04:28.263Z,30.57
2019-02-18T07:10:04.071Z,27.43
2019-02-18T07:20:26.223Z,29.17
2019-02-18T07:25:50.487Z,27.40
2019-02-18T07:31:07.758Z,25.93
2019-02-18T07:36:13.367Z,59.63
2019-02-18T07:41:37.956Z,35.47
2019-02-18T07:46:54.607Z,25.50
2019-02-18T07:51:59.822Z,20.67
2019-02-18T07:57:05.080Z,25.10
2019-02-18T08:08:18.167Z,55.10
2019-02-18T08:13:42.427Z,34.03
2019-02-18T08:18:47.690Z,33.50
2019-02-18T08:23:59.761Z,22.37
2019-02-18T08:29:09.239Z,22.07
2019-02-18T08:34:14.457Z,23.23
2019-02-18T08:39:38.856Z,20.83
2019-02-18T08:50:32.659Z,23.93
2019-02-18T08:55:57.091Z,19.60
2019-02-18T09:01:21.317Z,21.83
2019-02-18T09:06:45.831Z,21.13
2019-02-18T09:12:03.141Z,22.63
2019-02-18T09:17:08.509Z,22.13
2019-02-18T09:22:51.824Z,21.73
2019-02-18T09:28:08.318Z,24.40
2019-02-18T09:33:13.701Z,29.83
2019-02-18T09:55:22.257Z,19.10
2019-02-18T10:06:16.162Z,28.73
2019-02-18T10:11:21.360Z,19.07
2019-02-18T10:16:38.666Z,17.50
2019-02-18T10:21:43.884Z,17.73
2019-02-18T10:27:00.314Z,17.40
2019-02-18T10:32:05.592Z,18.57
2019-02-18T10:48:24.418Z,17.37
2019-02-18T10:53:48.685Z,20.33
2019-02-18T11:04:29.794Z,18.70
2019-02-18T11:09:46.161Z,19.60
2019-02-18T11:14:51.383Z,17.83
2019-02-18T11:20:15.733Z,15.97
2019-02-18T11:30:49.261Z,17.47
2019-02-18T11:35:54.540Z,14.67
2019-02-18T11:40:59.769Z,16.43
2019-02-18T11:51:22.234Z,16.33
2019-02-18T12:02:35.857Z,15.27
2019-02-18T12:13:10.553Z,15.90
2019-02-18T12:18:15.789Z,11.47
2019-02-18T12:24:00.899Z,12.13
2019-02-18T12:29:32.408Z,15.03
2019-02-18T12:34:49.239Z,12.87
2019-02-18T12:40:05.929Z,14.10
2019-02-18T12:45:22.882Z,13.03
2019-02-18T12:50:28.192Z,13.13
2019-02-18T12:55:40.653Z,12.07
2019-02-18T13:06:42.006Z,12.43
2019-02-18T13:12:19.827Z,19.37
2019-02-18T13:17:25.426Z,12.73
2019-02-18T13:22:30.678Z,11.37
2019-02-18T13:43:44.850Z,11.77
2019-02-18T13:48:55.532Z,13.03
2019-02-18T13:54:00.786Z,12.83
2019-02-18T13:59:17.070Z,13.23
2019-02-18T14:09:52.491Z,16.57
2019-02-18T14:20:47.817Z,13.70
2019-02-18T14:26:17.452Z,16.20
2019-02-18T14:31:22.742Z,18.47
2019-02-18T14:36:40.076Z,18.30
2019-02-18T14:47:22.695Z,16.80
2019-02-18T14:58:23.191Z,20.07
2019-02-18T15:09:51.207Z,16.87
2019-02-18T15:15:08.487Z,19.37
2019-02-18T15:20:13.734Z,16.23
2019-02-18T15:25:58.331Z,13.47
2019-02-18T15:31:22.614Z,17.17
2019-02-18T15:36:27.840Z,15.13
2019-02-18T15:52:26.749Z,10.67
2019-02-18T15:57:32.058Z,7.60
2019-02-18T16:02:37.330Z,11.07
2019-02-18T16:08:03.390Z,7.73
2019-02-18T16:18:38.885Z,7.53
2019-02-18T16:23:44.495Z,8.67
2019-02-18T16:28:49.681Z,8.80
2019-02-18T16:39:43.952Z,7.20
2019-02-18T16:45:00.809Z,4.90
2019-02-18T17:01:30.222Z,8.37
2019-02-18T17:06:47.047Z,10.20
2019-02-18T17:11:52.543Z,6.83
2019-02-18T17:16:57.882Z,9.47
2019-02-18T17:27:39.119Z,16.00
2019-02-18T17:33:10.289Z,13.63
2019-02-18T17:38:15.692Z,13.63
2019-02-18T17:43:32.684Z,19.63
2019-02-18T17:54:14.318Z,19.30
2019-02-18T17:59:38.614Z,18.57
2019-02-18T18:04:55.698Z,21.03
2019-02-18T18:26:31.858Z,23.13
2019-02-18T18:31:37.102Z,21.53
2019-02-18T18:36:54.691Z,15.53
2019-02-18T18:42:11.433Z,21.30
2019-02-18T18:47:28.792Z,20.30
2019-02-18T18:52:34.148Z,26.00
2019-02-18T18:57:46.489Z,19.27
2019-02-18T19:03:02.755Z,17.60
2019-02-18T19:08:27.912Z,16.00
2019-02-18T19:13:33.177Z,13.00
2019-02-18T19:18:38.455Z,12.50
2019-02-18T19:45:12.642Z,16.83
2019-02-18T19:50:28.760Z,18.10
2019-02-18T19:55:53.297Z,15.10
2019-02-18T20:00:58.485Z,14.17
2019-02-18T20:06:22.743Z,16.50
2019-02-18T20:11:28.010Z,13.40
2019-02-18T20:16:52.526Z,14.73
2019-02-18T20:21:58.070Z,14.73
2019-02-18T20:27:03.298Z,19.53
2019-02-18T20:32:19.985Z,16.27
2019-02-18T20:37:25.195Z,18.77
2019-02-18T20:42:30.733Z,20.33
2019-02-18T20:47:55.585Z,18.20
2019-02-18T20:53:13.161Z,21.63
2019-02-18T20:58:18.373Z,18.53
2019-02-18T21:03:23.609Z,21.37
2019-02-18T21:08:40.796Z,30.30
2019-02-18T21:13:46.376Z,28.00
2019-02-18T21:24:40.794Z,28.50
2019-02-18T21:29:46.340Z,26.70
2019-02-18T21:34:51.924Z,26.47
2019-02-18T21:40:16.440Z,27.30
2019-02-18T21:45:21.692Z,19.73
2019-02-18T21:50:27.013Z,21.93
2019-02-18T21:55:32.339Z,22.17
2019-02-18T22:01:01.894Z,25.60
2019-02-18T22:06:07.281Z,27.17
2019-02-18T22:22:05.864Z,21.10
2019-02-18T22:27:11.175Z,23.53
2019-02-18T22:32:16.986Z,20.13
2019-02-18T22:37:22.372Z,25.73
2019-02-18T22:42:34.951Z,22.13
2019-02-18T22:47:40.237Z,19.70
2019-02-18T22:52:45.830Z,18.93
2019-02-18T22:58:02.911Z,20.47
2019-02-18T23:08:44.251Z,19.10
2019-02-18T23:13:49.492Z,15.10
2019-02-18T23:24:30.941Z,14.23
2019-02-18T23:29:36.122Z,13.40
2019-02-18T23:40:11.577Z,14.80
2019-02-18T23:45:16.753Z,14.03
2019-02-18T23:55:38.462Z,15.07
